sensor_id;sensor_type;location;lat;lon;timestamp;P1;durP1;ratioP1;P2;durP2;ratioP2
21621;SDS011;10973;46.706;12.340;2022-09-09T15:56:37;1.10;;;1.10;;
21621;SDS011;10973;46.706;12.340;2022-09-09T15:59:06;2.20;;;1.17;;
21621;SDS011;10973;46.706;12.340;2022-09-09T16:01:35;2.97;;;1.37;;
21621;SDS011;10973;46.706;12.340;2022-09-09T16:04:05;2.40;;;2.20;;
21621;SDS011;10973;46.706;12.340;2022-09-09T16:06:32;2.53;;;2.33;;
21621;SDS011;10973;46.706;12.340;2022-09-09T16:08:59;2.47;;;1.93;;
21621;SDS011;10973;46.706;12.340;2022-09-09T16:11:34;1.10;;;1.10;;
21621;SDS011;10973;46.706;12.340;2022-09-09T16:14:04;1.80;;;1.20;;
21621;SDS011;10973;46.706;12.340;2022-09-09T16:16:31;1.20;;;1.20;;
21621;SDS011;10973;46.706;12.340;2022-09-09T16:19:01;1.70;;;1.30;;
21621;SDS011;10973;46.706;12.340;2022-09-09T16:21:37;1.50;;;1.40;;
21621;SDS011;10973;46.706;12.340;2022-09-09T16:24:08;1.50;;;1.43;;
21621;SDS011;10973;46.706;12.340;2022-09-09T16:26:40;1.90;;;1.80;;
21621;SDS011;10973;46.706;12.340;2022-09-09T16:29:11;2.50;;;1.30;;
21621;SDS011;10973;46.706;12.340;2022-09-09T16:31:40;1.93;;;1.20;;
21621;SDS011;10973;46.706;12.340;2022-09-09T16:34:09;3.67;;;1.40;;
21621;SDS011;10973;46.706;12.340;2022-09-09T16:36:38;1.10;;;1.10;;
21621;SDS011;10973;46.706;12.340;2022-09-09T16:39:09;1.00;;;1.00;;
21621;SDS011;10973;46.706;12.340;2022-09-09T16:41:41;1.53;;;0.90;;
21621;SDS011;10973;46.706;12.340;2022-09-09T16:44:11;1.10;;;1.10;;
21621;SDS011;10973;46.706;12.340;2022-09-09T16:46:45;1.13;;;1.10;;
21621;SDS011;10973;46.706;12.340;2022-09-09T16:49:16;0.90;;;0.90;;
21621;SDS011;10973;46.706;12.340;2022-09-09T16:51:49;1.10;;;1.10;;
21621;SDS011;10973;46.706;12.340;2022-09-09T16:54:17;1.50;;;1.40;;
21621;SDS011;10973;46.706;12.340;2022-09-09T16:56:45;2.20;;;1.40;;
21621;SDS011;10973;46.706;12.340;2022-09-09T16:59:15;1.47;;;1.37;;
21621;SDS011;10973;46.706;12.340;2022-09-09T17:01:48;1.30;;;1.20;;
21621;SDS011;10973;46.706;12.340;2022-09-09T17:04:19;1.80;;;1.70;;
21621;SDS011;10973;46.706;12.340;2022-09-09T17:06:53;2.20;;;2.00;;
21621;SDS011;10973;46.706;12.340;2022-09-09T17:09:22;1.70;;;1.43;;
21621;SDS011;10973;46.706;12.340;2022-09-09T17:11:51;2.70;;;1.50;;
21621;SDS011;10973;46.706;12.340;2022-09-09T17:14:21;3.90;;;1.40;;
21621;SDS011;10973;46.706;12.340;2022-09-09T17:16:48;2.53;;;1.73;;
21621;SDS011;10973;46.706;12.340;2022-09-09T17:19:16;1.40;;;1.37;;
21621;SDS011;10973;46.706;12.340;2022-09-09T17:21:44;1.57;;;1.47;;
21621;SDS011;10973;46.706;12.340;2022-09-09T17:24:31;7.30;;;5.33;;
21621;SDS011;10973;46.706;12.340;2022-09-09T17:26:58;2.17;;;2.07;;
21621;SDS011;10973;46.706;12.340;2022-09-09T17:29:25;5.27;;;3.87;;
21621;SDS011;10973;46.706;12.340;2022-09-09T17:31:53;6.00;;;3.73;;
21621;SDS011;10973;46.706;12.340;2022-09-09T17:34:20;7.70;;;4.13;;
21621;SDS011;10973;46.706;12.340;2022-09-09T17:36:47;3.97;;;2.57;;
21621;SDS011;10973;46.706;12.340;2022-09-09T17:39:15;2.50;;;2.27;;
21621;SDS011;10973;46.706;12.340;2022-09-09T17:41:42;2.10;;;2.00;;
21621;SDS011;10973;46.706;12.340;2022-09-09T17:44:10;3.77;;;2.90;;
21621;SDS011;10973;46.706;12.340;2022-09-09T17:46:56;3.70;;;3.23;;
21621;SDS011;10973;46.706;12.340;2022-09-09T17:49:23;2.33;;;2.20;;
21621;SDS011;10973;46.706;12.340;2022-09-09T17:51:50;2.53;;;2.30;;
21621;SDS011;10973;46.706;12.340;2022-09-09T17:54:19;4.83;;;3.87;;
21621;SDS011;10973;46.706;12.340;2022-09-09T17:56:47;4.87;;;3.80;;
21621;SDS011;10973;46.706;12.340;2022-09-09T17:59:15;5.30;;;4.20;;
21621;SDS011;10973;46.706;12.340;2022-09-09T18:01:45;6.10;;;3.40;;
21621;SDS011;10973;46.706;12.340;2022-09-09T18:04:14;3.50;;;1.80;;
21621;SDS011;10973;46.706;12.340;2022-09-09T18:06:48;1.90;;;1.80;;
21621;SDS011;10973;46.706;12.340;2022-09-09T18:09:19;1.80;;;1.70;;
21621;SDS011;10973;46.706;12.340;2022-09-09T18:11:50;2.37;;;1.33;;
21621;SDS011;10973;46.706;12.340;2022-09-09T18:14:22;1.30;;;1.30;;
21621;SDS011;10973;46.706;12.340;2022-09-09T18:16:53;1.70;;;1.23;;
21621;SDS011;10973;46.706;12.340;2022-09-09T18:19:22;1.00;;;1.00;;
21621;SDS011;10973;46.706;12.340;2022-09-09T18:21:52;1.90;;;1.00;;
21621;SDS011;10973;46.706;12.340;2022-09-09T18:24:24;1.10;;;1.00;;
21621;SDS011;10973;46.706;12.340;2022-09-09T18:26:51;0.90;;;0.90;;
21621;SDS011;10973;46.706;12.340;2022-09-09T18:29:19;1.00;;;1.00;;
21621;SDS011;10973;46.706;12.340;2022-09-09T18:31:49;1.07;;;0.97;;
21621;SDS011;10973;46.706;12.340;2022-09-09T18:34:19;1.67;;;0.90;;
21621;SDS011;10973;46.706;12.340;2022-09-09T18:36:50;0.83;;;0.80;;
21621;SDS011;10973;46.706;12.340;2022-09-09T18:39:20;1.17;;;0.80;;
21621;SDS011;10973;46.706;12.340;2022-09-09T18:41:52;0.80;;;0.80;;
21621;SDS011;10973;46.706;12.340;2022-09-09T18:44:23;4.83;;;1.20;;
21621;SDS011;10973;46.706;12.340;2022-09-09T18:47:00;1.73;;;1.00;;
21621;SDS011;10973;46.706;12.340;2022-09-09T18:49:28;0.80;;;0.80;;
21621;SDS011;10973;46.706;12.340;2022-09-09T18:51:55;1.10;;;1.10;;
21621;SDS011;10973;46.706;12.340;2022-09-09T18:54:24;0.90;;;0.90;;
21621;SDS011;10973;46.706;12.340;2022-09-09T18:56:56;1.80;;;1.10;;
21621;SDS011;10973;46.706;12.340;2022-09-09T18:59:23;1.03;;;0.90;;
21621;SDS011;10973;46.706;12.340;2022-09-09T19:01:51;1.60;;;1.10;;
21621;SDS011;10973;46.706;12.340;2022-09-09T19:04:21;1.13;;;1.03;;
21621;SDS011;10973;46.706;12.340;2022-09-09T19:06:50;1.07;;;0.90;;
21621;SDS011;10973;46.706;12.340;2022-09-09T19:09:18;1.07;;;0.90;;
21621;SDS011;10973;46.706;12.340;2022-09-09T19:11:47;1.17;;;0.93;;
21621;SDS011;10973;46.706;12.340;2022-09-09T19:14:18;1.13;;;0.90;;
21621;SDS011;10973;46.706;12.340;2022-09-09T19:16:45;0.90;;;0.90;;
21621;SDS011;10973;46.706;12.340;2022-09-09T19:22:05;2.20;;;0.90;;
21621;SDS011;10973;46.706;12.340;2022-09-09T19:24:36;3.73;;;1.40;;
21621;SDS011;10973;46.706;12.340;2022-09-09T19:27:12;0.90;;;0.90;;
21621;SDS011;10973;46.706;12.340;2022-09-09T19:29:39;0.83;;;0.80;;
21621;SDS011;10973;46.706;12.340;2022-09-09T19:32:07;5.40;;;1.27;;
21621;SDS011;10973;46.706;12.340;2022-09-09T19:34:54;1.87;;;1.30;;
21621;SDS011;10973;46.706;12.340;2022-09-09T19:37:22;1.73;;;1.30;;
21621;SDS011;10973;46.706;12.340;2022-09-09T19:39:49;8.77;;;6.97;;
21621;SDS011;10973;46.706;12.340;2022-09-09T19:42:16;3.43;;;3.10;;
21621;SDS011;10973;46.706;12.340;2022-09-09T19:44:44;1.17;;;1.17;;
21621;SDS011;10973;46.706;12.340;2022-09-09T19:47:11;1.07;;;0.90;;
21621;SDS011;10973;46.706;12.340;2022-09-09T19:49:39;2.13;;;1.07;;
21621;SDS011;10973;46.706;12.340;2022-09-09T19:52:11;1.37;;;1.03;;
21621;SDS011;10973;46.706;12.340;2022-09-09T19:54:38;1.10;;;1.10;;
21621;SDS011;10973;46.706;12.340;2022-09-09T19:57:06;2.33;;;1.43;;
21621;SDS011;10973;46.706;12.340;2022-09-09T19:59:33;1.90;;;1.80;;
21621;SDS011;10973;46.706;12.340;2022-09-09T20:02:00;1.50;;;1.40;;
21621;SDS011;10973;46.706;12.340;2022-09-09T20:04:28;1.83;;;1.20;;
21621;SDS011;10973;46.706;12.340;2022-09-09T20:06:55;2.07;;;1.30;;
21621;SDS011;10973;46.706;12.340;2022-09-09T20:09:22;1.00;;;1.00;;
21621;SDS011;10973;46.706;12.340;2022-09-09T20:11:50;2.60;;;1.10;;
21621;SDS011;10973;46.706;12.340;2022-09-09T20:14:17;1.70;;;1.60;;
21621;SDS011;10973;46.706;12.340;2022-09-09T20:16:44;3.03;;;1.70;;
21621;SDS011;10973;46.706;12.340;2022-09-09T20:19:12;3.40;;;3.00;;
21621;SDS011;10973;46.706;12.340;2022-09-09T20:21:41;8.73;;;5.50;;
21621;SDS011;10973;46.706;12.340;2022-09-09T20:24:14;9.43;;;6.13;;
21621;SDS011;10973;46.706;12.340;2022-09-09T20:26:44;5.17;;;4.40;;
21621;SDS011;10973;46.706;12.340;2022-09-09T20:29:15;4.77;;;3.97;;
21621;SDS011;10973;46.706;12.340;2022-09-09T20:31:45;6.50;;;4.60;;
21621;SDS011;10973;46.706;12.340;2022-09-09T20:34:15;5.33;;;3.60;;
21621;SDS011;10973;46.706;12.340;2022-09-09T20:36:45;6.50;;;3.37;;
21621;SDS011;10973;46.706;12.340;2022-09-09T20:39:13;3.93;;;2.80;;
21621;SDS011;10973;46.706;12.340;2022-09-09T20:41:44;3.43;;;3.13;;
21621;SDS011;10973;46.706;12.340;2022-09-09T20:44:13;3.60;;;3.30;;
21621;SDS011;10973;46.706;12.340;2022-09-09T20:46:44;4.43;;;2.73;;
21621;SDS011;10973;46.706;12.340;2022-09-09T20:49:14;3.10;;;2.73;;
21621;SDS011;10973;46.706;12.340;2022-09-09T20:51:44;2.60;;;2.40;;
21621;SDS011;10973;46.706;12.340;2022-09-09T20:54:15;2.63;;;2.43;;
21621;SDS011;10973;46.706;12.340;2022-09-09T20:56:45;2.63;;;2.43;;
21621;SDS011;10973;46.706;12.340;2022-09-09T20:59:15;2.57;;;2.27;;
21621;SDS011;10973;46.706;12.340;2022-09-09T21:01:47;3.73;;;2.20;;
21621;SDS011;10973;46.706;12.340;2022-09-09T21:04:15;2.77;;;2.00;;
21621;SDS011;10973;46.706;12.340;2022-09-09T21:06:45;2.23;;;1.97;;
21621;SDS011;10973;46.706;12.340;2022-09-09T21:09:14;3.10;;;2.07;;
21621;SDS011;10973;46.706;12.340;2022-09-09T21:11:41;2.30;;;1.90;;
21621;SDS011;10973;46.706;12.340;2022-09-09T21:14:09;2.13;;;1.93;;
21621;SDS011;10973;46.706;12.340;2022-09-09T21:16:36;2.00;;;1.90;;
21621;SDS011;10973;46.706;12.340;2022-09-09T21:19:03;2.10;;;2.00;;
21621;SDS011;10973;46.706;12.340;2022-09-09T21:21:31;3.30;;;1.93;;
21621;SDS011;10973;46.706;12.340;2022-09-09T21:23:58;1.70;;;1.70;;
21621;SDS011;10973;46.706;12.340;2022-09-09T21:26:25;1.53;;;1.43;;
21621;SDS011;10973;46.706;12.340;2022-09-09T21:28:53;1.30;;;1.30;;
21621;SDS011;10973;46.706;12.340;2022-09-09T21:31:20;4.53;;;1.70;;
21621;SDS011;10973;46.706;12.340;2022-09-09T21:33:53;2.90;;;1.50;;
21621;SDS011;10973;46.706;12.340;2022-09-09T21:36:22;1.53;;;1.50;;
21621;SDS011;10973;46.706;12.340;2022-09-09T21:38:50;1.47;;;1.37;;
21621;SDS011;10973;46.706;12.340;2022-09-09T21:41:18;1.60;;;1.60;;
21621;SDS011;10973;46.706;12.340;2022-09-09T21:43:45;2.60;;;1.50;;
21621;SDS011;10973;46.706;12.340;2022-09-09T21:46:18;3.23;;;1.63;;
21621;SDS011;10973;46.706;12.340;2022-09-09T21:48:46;2.53;;;2.00;;
21621;SDS011;10973;46.706;12.340;2022-09-09T21:51:14;1.80;;;1.70;;
21621;SDS011;10973;46.706;12.340;2022-09-09T21:53:43;1.53;;;1.43;;
21621;SDS011;10973;46.706;12.340;2022-09-09T21:56:12;1.50;;;1.40;;
21621;SDS011;10973;46.706;12.340;2022-09-09T21:58:44;4.17;;;1.20;;
21621;SDS011;10973;46.706;12.340;2022-09-09T22:01:16;4.03;;;2.77;;
21621;SDS011;10973;46.706;12.340;2022-09-09T22:03:44;7.67;;;4.47;;
21621;SDS011;10973;46.706;12.340;2022-09-09T22:06:13;2.93;;;2.70;;
21621;SDS011;10973;46.706;12.340;2022-09-09T22:08:42;3.03;;;2.50;;
21621;SDS011;10973;46.706;12.340;2022-09-09T22:11:14;2.87;;;2.43;;
21621;SDS011;10973;46.706;12.340;2022-09-09T22:13:43;3.10;;;2.80;;
21621;SDS011;10973;46.706;12.340;2022-09-09T22:16:11;5.37;;;4.30;;
21621;SDS011;10973;46.706;12.340;2022-09-09T22:18:41;3.83;;;3.10;;
21621;SDS011;10973;46.706;12.340;2022-09-09T22:21:10;3.70;;;3.00;;
21621;SDS011;10973;46.706;12.340;2022-09-09T22:23:40;1.83;;;1.73;;
21621;SDS011;10973;46.706;12.340;2022-09-09T22:26:08;3.47;;;1.80;;
21621;SDS011;10973;46.706;12.340;2022-09-09T22:28:36;2.07;;;1.60;;
21621;SDS011;10973;46.706;12.340;2022-09-09T22:31:04;2.20;;;1.50;;
21621;SDS011;10973;46.706;12.340;2022-09-09T22:33:32;2.50;;;1.40;;
21621;SDS011;10973;46.706;12.340;2022-09-09T22:35:59;3.50;;;1.80;;
21621;SDS011;10973;46.706;12.340;2022-09-09T22:38:27;1.67;;;1.30;;
21621;SDS011;10973;46.706;12.340;2022-09-09T22:40:55;1.53;;;1.53;;
21621;SDS011;10973;46.706;12.340;2022-09-09T22:43:22;1.70;;;1.60;;
21621;SDS011;10973;46.706;12.340;2022-09-09T22:45:50;1.60;;;1.50;;
21621;SDS011;10973;46.706;12.340;2022-09-09T22:48:17;1.73;;;1.63;;
21621;SDS011;10973;46.706;12.340;2022-09-09T22:50:45;2.03;;;1.93;;
21621;SDS011;10973;46.706;12.340;2022-09-09T22:53:14;3.23;;;1.77;;
21621;SDS011;10973;46.706;12.340;2022-09-09T22:55:53;1.50;;;1.50;;
21621;SDS011;10973;46.706;12.340;2022-09-09T22:58:22;1.80;;;1.70;;
21621;SDS011;10973;46.706;12.340;2022-09-09T23:00:50;2.67;;;1.50;;
21621;SDS011;10973;46.706;12.340;2022-09-09T23:03:17;1.50;;;1.40;;
21621;SDS011;10973;46.706;12.340;2022-09-09T23:05:51;3.77;;;1.53;;
21621;SDS011;10973;46.706;12.340;2022-09-09T23:08:20;1.20;;;1.20;;
21621;SDS011;10973;46.706;12.340;2022-09-09T23:10:48;3.23;;;1.60;;
21621;SDS011;10973;46.706;12.340;2022-09-09T23:13:16;3.10;;;1.77;;
21621;SDS011;10973;46.706;12.340;2022-09-09T23:15:44;1.80;;;1.67;;
21621;SDS011;10973;46.706;12.340;2022-09-09T23:18:11;1.80;;;1.70;;
21621;SDS011;10973;46.706;12.340;2022-09-09T23:20:39;1.90;;;1.80;;
21621;SDS011;10973;46.706;12.340;2022-09-09T23:23:07;2.00;;;1.67;;
21621;SDS011;10973;46.706;12.340;2022-09-09T23:25:35;1.63;;;1.50;;
21621;SDS011;10973;46.706;12.340;2022-09-09T23:28:03;1.40;;;1.40;;
21621;SDS011;10973;46.706;12.340;2022-09-09T23:30:31;1.97;;;1.87;;
21621;SDS011;10973;46.706;12.340;2022-09-09T23:32:58;1.90;;;1.80;;
21621;SDS011;10973;46.706;12.340;2022-09-09T23:35:26;2.07;;;1.93;;
21621;SDS011;10973;46.706;12.340;2022-09-09T23:37:53;3.43;;;1.80;;
21621;SDS011;10973;46.706;12.340;2022-09-09T23:40:21;1.80;;;1.70;;
21621;SDS011;10973;46.706;12.340;2022-09-09T23:42:48;2.50;;;1.77;;
21621;SDS011;10973;46.706;12.340;2022-09-09T23:45:16;1.87;;;1.77;;
21621;SDS011;10973;46.706;12.340;2022-09-09T23:47:44;2.03;;;1.90;;
21621;SDS011;10973;46.706;12.340;2022-09-09T23:50:12;1.67;;;1.57;;
21621;SDS011;10973;46.706;12.340;2022-09-09T23:52:39;1.47;;;1.47;;
21621;SDS011;10973;46.706;12.340;2022-09-09T23:55:07;1.43;;;1.40;;
21621;SDS011;10973;46.706;12.340;2022-09-09T23:57:35;1.60;;;1.50;;
